| time (UTC) | temp F | wind direction | speed MPH | gust MPH | rain 1hr in | rain 24hr in | rain mn in | humidity % | barometer mb |
| 20260906220040 | 86 | 131 | 0.0 | 4.0 | 0.00 | 0.00 | 0.00 | 32 | 1000.3 |
| 20260906214554 | 86 | 131 | 1.0 | 7.0 | 0.00 | 0.00 | 0.00 | 32 | 1000.5 |
| 20260906213036 | 88 | 131 | 1.0 | 3.0 | 0.00 | 0.00 | 0.00 | 31 | 1000.7 |
| 20260906211541 | 87 | 131 | 0.0 | 6.0 | 0.00 | 0.00 | 0.00 | 31 | 1000.9 |
| 20260906210048 | 85 | 131 | 0.0 | 5.0 | 0.00 | 0.00 | 0.00 | 30 | 1001.2 |
| 20260906204529 | 84 | 131 | 0.0 | 5.0 | 0.00 | 0.00 | 0.00 | 32 | 1001.3 |
| 20260906203031 | 85 | 131 | 2.0 | 6.0 | 0.00 | 0.00 | 0.00 | 32 | 1001.3 |
| 20260906201538 | 87 | 131 | 2.0 | 10.0 | 0.00 | 0.00 | 0.00 | 31 | 1001.4 |
| 20260906200022 | 86 | 131 | 0.0 | 5.0 | 0.00 | 0.00 | 0.00 | 34 | 1001.4 |
| 20260906194522 | 84 | 131 | 2.0 | 7.0 | 0.00 | 0.00 | 0.00 | 35 | 1001.4 |
| 20260906193023 | 84 | 131 | 2.0 | 7.0 | 0.00 | 0.00 | 0.00 | 38 | 1001.6 |
| 20260906191514 | 85 | 131 | 0.0 | 6.0 | 0.00 | 0.00 | 0.00 | 39 | 1001.9 |
| 20260906190010 | 83 | 131 | 1.0 | 9.0 | 0.00 | 0.00 | 0.00 | 39 | 1002.1 |
| 20260906184508 | 83 | 131 | 1.0 | 5.0 | 0.00 | 0.00 | 0.00 | 41 | 1002.4 |
| 20260906183007 | 82 | 131 | 0.0 | 7.0 | 0.00 | 0.00 | 0.00 | 42 | 1002.7 |
| 20260906181502 | 82 | 131 | 0.0 | 4.0 | 0.00 | 0.00 | 0.00 | 41 | 1003.1 |
| 20260906180125 | 80 | 131 | 0.0 | 5.0 | 0.00 | 0.00 | 0.00 | 43 | 1003.3 |
| 20260906174604 | 80 | 131 | 0.0 | 3.0 | 0.00 | 0.00 | 0.00 | 47 | 1003.6 |
| 20260906173100 | 79 | 131 | 0.0 | 4.0 | 0.00 | 0.00 | 0.00 | 49 | 1004.1 |
| 20260906171554 | 78 | 131 | 0.0 | 7.0 | 0.00 | 0.00 | 0.00 | 51 | 1004.2 |
| 20260906170053 | 78 | 131 | 3.0 | 7.0 | 0.00 | 0.00 | 0.00 | 53 | 1004.2 |
| 20260906164549 | 76 | 131 | 0.0 | 6.0 | 0.00 | 0.00 | 0.00 | 57 | 1004.5 |
| 20260906163055 | 75 | 131 | 1.0 | 4.0 | 0.00 | 0.00 | 0.00 | 57 | 1004.4 |
| 20260906161546 | 73 | 131 | 0.0 | 4.0 | 0.00 | 0.00 | 0.00 | 61 | 1004.4 |
| 20260906160046 | 72 | 131 | 1.0 | 6.0 | 0.00 | 0.00 | 0.00 | 64 | 1004.3 |
| 20260906154546 | 72 | 131 | 1.0 | 6.0 | 0.00 | 0.00 | 0.00 | 65 | 1004.2 |
| 20260906153108 | 72 | 131 | 3.0 | 6.0 | 0.00 | 0.00 | 0.00 | 65 | 1004.3 |
| 20260906151553 | 70 | 131 | 0.0 | 3.0 | 0.00 | 0.00 | 0.00 | 70 | 1004.5 |
| 20260906150044 | 69 | 131 | 2.0 | 3.0 | 0.00 | 0.00 | 0.00 | 71 | 1004.6 |
| 20260906144545 | 67 | 131 | 0.0 | 3.0 | 0.00 | 0.00 | 0.00 | 75 | 1004.7 |
| 20260906143044 | 68 | 131 | 0.0 | 4.0 | 0.00 | 0.00 | 0.00 | 72 | 1004.7 |
| 20260906141540 | 68 | 131 | 1.0 | 3.0 | 0.00 | 0.00 | 0.00 | 72 | 1004.4 |
| 20260906140037 | 66 | 131 | 1.0 | 4.0 | 0.00 | 0.00 | 0.00 | 76 | 1004.4 |
| 20260906134549 | 65 | 131 | 2.0 | 5.0 | 0.00 | 0.00 | 0.00 | 78 | 1004.4 |
| 20260906133042 | 64 | 131 | 0.0 | 3.0 | 0.00 | 0.00 | 0.00 | 80 | 1004.5 |
| 20260906131532 | 63 | 131 | 0.0 | 0.0 | 0.00 | 0.00 | 0.00 | 80 | 1004.6 |
| 20260906130033 | 62 | 131 | 0.0 | 0.0 | 0.00 | 0.00 | 0.00 | 81 | 1004.5 |
| 20260906124529 | 62 | 131 | 0.0 | 0.0 | 0.00 | 0.00 | 0.00 | 82 | 1004.4 |
| 20260906123047 | 61 | 131 | 0.0 | 0.0 | 0.00 | 0.00 | 0.00 | 80 | 1004.3 |
| 20260906121527 | 62 | 131 | 0.0 | 0.0 | 0.00 | 0.00 | 0.00 | 80 | 1004.2 |
| 20260906120025 | 61 | 131 | 0.0 | 0.0 | 0.00 | 0.00 | 0.00 | 81 | 1004.1 |
| 20260906114524 | 60 | 131 | 0.0 | 0.0 | 0.00 | 0.00 | 0.00 | 79 | 1004.1 |
| 20260906113023 | 60 | 131 | 0.0 | 2.0 | 0.00 | 0.00 | 0.00 | 77 | 1004.1 |
| 20260906111525 | 61 | 131 | 0.0 | 0.0 | 0.00 | 0.00 | 0.00 | 76 | 1004.0 |
| 20260906110017 | 62 | 131 | 0.0 | 0.0 | 0.00 | 0.00 | 0.00 | 73 | 1003.9 |
| 20260906104514 | 63 | 131 | 0.0 | 0.0 | 0.00 | 0.00 | 0.00 | 74 | 1004.2 |
| 20260906103012 | 62 | 131 | 0.0 | 2.0 | 0.00 | 0.00 | 0.00 | 69 | 1004.1 |
| 20260906101521 | 63 | 131 | 0.0 | 2.0 | 0.00 | 0.00 | 0.00 | 70 | 1004.1 |
| 20260906100009 | 63 | 131 | 0.0 | 1.0 | 0.00 | 0.00 | 0.00 | 68 | 1004.2 |
| 20260906094505 | 63 | 131 | 0.0 | 0.0 | 0.00 | 0.00 | 0.00 | 64 | 1004.1 |
| 20260906093001 | 65 | 131 | 0.0 | 0.0 | 0.00 | 0.00 | 0.00 | 61 | 1004.2 |
| 20260906091559 | 66 | 131 | 0.0 | 3.0 | 0.00 | 0.00 | 0.00 | 58 | 1003.7 |
| 20260906090114 | 66 | 131 | 0.0 | 2.0 | 0.00 | 0.00 | 0.00 | 56 | 1003.4 |
| 20260906084556 | 67 | 131 | 0.0 | 2.0 | 0.00 | 0.00 | 0.00 | 54 | 1003.4 |
| 20260906083053 | 67 | 131 | 0.0 | 4.0 | 0.00 | 0.00 | 0.00 | 52 | 1003.4 |
| 20260906081554 | 67 | 131 | 0.0 | 0.0 | 0.00 | 0.00 | 0.00 | 50 | 1003.4 |
| 20260906080055 | 67 | 131 | 0.0 | 1.0 | 0.00 | 0.00 | 0.00 | 47 | 1003.4 |
| 20260906074548 | 68 | 131 | 0.0 | 1.0 | 0.00 | 0.00 | 0.00 | 47 | 1003.5 |
| 20260906073057 | 70 | 131 | 0.0 | 1.0 | 0.00 | 0.00 | 0.00 | 44 | 1003.5 |
| 20260906071541 | 72 | 131 | 0.0 | 1.0 | 0.00 | 0.00 | 0.00 | 42 | 1003.4 |
| 20260906070043 | 71 | 131 | 0.0 | 4.0 | 0.00 | 0.00 | 0.00 | 42 | 1003.4 |
| 20260906064539 | 70 | 131 | 0.0 | 0.0 | 0.00 | 0.00 | 0.00 | 44 | 1003.4 |
| 20260906063046 | 69 | 131 | 0.0 | 3.0 | 0.00 | 0.00 | 0.00 | 45 | 1003.4 |
| 20260906061535 | 69 | 131 | 0.0 | 0.0 | 0.00 | 0.00 | 0.00 | 45 | 1003.3 |
| 20260906060030 | 71 | 131 | 0.0 | 1.0 | 0.00 | 0.00 | 0.00 | 43 | 1003.4 |
| 20260906054529 | 72 | 131 | 1.0 | 3.0 | 0.00 | 0.00 | 0.00 | 42 | 1003.7 |
| 20260906053029 | 73 | 131 | 0.0 | 1.0 | 0.00 | 0.00 | 0.00 | 41 | 1003.9 |
| 20260906051545 | 73 | 131 | 0.0 | 1.0 | 0.00 | 0.00 | 0.00 | 40 | 1003.6 |
| 20260906050025 | 73 | 131 | 0.0 | 1.0 | 0.00 | 0.00 | 0.00 | 40 | 1003.1 |
| 20260906044525 | 73 | 131 | 0.0 | 0.0 | 0.00 | 0.00 | 0.00 | 39 | 1003.1 |
| 20260906043025 | 75 | 131 | 0.0 | 4.0 | 0.00 | 0.00 | 0.00 | 37 | 1002.7 |
| 20260906041524 | 74 | 131 | 2.0 | 5.0 | 0.00 | 0.00 | 0.00 | 37 | 1002.9 |
| 20260906040032 | 74 | 131 | 0.0 | 2.0 | 0.00 | 0.00 | 0.00 | 37 | 1002.5 |
| 20260906034529 | 73 | 131 | 0.0 | 0.0 | 0.00 | 0.00 | 0.00 | 39 | 1002.0 |
| 20260906033022 | 73 | 131 | 0.0 | 0.0 | 0.00 | 0.00 | 0.00 | 38 | 1002.1 |
| 20260906031529 | 74 | 131 | 0.0 | 0.0 | 0.00 | 0.00 | 0.00 | 36 | 1002.1 |
| 20260906030022 | 77 | 131 | 0.0 | 2.0 | 0.00 | 0.00 | 0.00 | 34 | 1001.5 |
| 20260906024520 | 78 | 131 | 1.0 | 5.0 | 0.00 | 0.00 | 0.00 | 31 | 1001.4 |
| 20260906023020 | 79 | 131 | 0.0 | 1.0 | 0.00 | 0.00 | 0.00 | 30 | 1000.9 |
| 20260906021520 | 80 | 131 | 0.0 | 5.0 | 0.00 | 0.00 | 0.00 | 30 | 1000.9 |
| 20260906020022 | 79 | 131 | 0.0 | 4.0 | 0.00 | 0.00 | 0.00 | 31 | 1001.0 |
| 20260906014527 | 78 | 131 | 0.0 | 2.0 | 0.00 | 0.00 | 0.00 | 32 | 1000.7 |
| 20260906013019 | 79 | 131 | 0.0 | 4.0 | 0.00 | 0.00 | 0.00 | 32 | 1000.5 |
| 20260906011518 | 80 | 131 | 0.0 | 2.0 | 0.00 | 0.00 | 0.00 | 30 | 1000.7 |
| 20260906010018 | 82 | 131 | 0.0 | 2.0 | 0.00 | 0.00 | 0.00 | 28 | 1000.6 |
| 20260906004518 | 84 | 131 | 1.0 | 4.0 | 0.00 | 0.00 | 0.00 | 27 | 1000.7 |
| 20260906003017 | 85 | 131 | 0.0 | 9.0 | 0.00 | 0.00 | 0.00 | 25 | 1000.9 |
| 20260906001516 | 86 | 131 | 0.0 | 2.0 | 0.00 | 0.00 | 0.00 | 23 | 1000.8 |
| 20260906000016 | 86 | 131 | 1.0 | 4.0 | 0.00 | 0.00 | 0.00 | 24 | 1000.6 |
| 20260905234516 | 86 | 131 | 0.0 | 7.0 | 0.00 | 0.00 | 0.00 | 23 | 1000.8 |
| 20260905233014 | 88 | 131 | 1.0 | 3.0 | 0.00 | 0.00 | 0.00 | 21 | 1000.6 |
| 20260905231522 | 89 | 131 | 0.0 | 3.0 | 0.00 | 0.00 | 0.00 | 20 | 1000.5 |
| 20260905230020 | 90 | 131 | 1.0 | 7.0 | 0.00 | 0.00 | 0.00 | 19 | 1000.3 |
| 20260905224513 | 90 | 131 | 1.0 | 5.0 | 0.00 | 0.00 | 0.00 | 19 | 1000.1 |
| 20260905223012 | 92 | 131 | 0.0 | 3.0 | 0.00 | 0.00 | 0.00 | 19 | 1000.1 |
| 20260905221511 | 92 | 131 | 1.0 | 3.0 | 0.00 | 0.00 | 0.00 | 18 | 1000.1 |